createdAt,value
2022-11-29T00:02:21.770Z,101166.03
2022-11-29T00:05:36.545Z,101169.00
2022-11-29T00:08:52.577Z,101163.38
2022-11-29T00:12:01.216Z,101154.88
2022-11-29T00:15:15.553Z,101148.72
2022-11-29T00:18:17.353Z,101147.31
2022-11-29T00:21:32.637Z,101144.88
2022-11-29T00:24:34.415Z,101148.72
2022-11-29T00:27:49.550Z,101140.41
2022-11-29T00:30:51.486Z,101133.56
2022-11-29T00:34:08.578Z,101135.94
2022-11-29T00:37:16.582Z,101130.66
2022-11-29T00:40:25.202Z,101124.16
2022-11-29T00:43:33.569Z,101134.00
2022-11-29T00:46:48.584Z,101127.25
2022-11-29T00:49:57.246Z,101123.31
2022-11-29T00:53:05.597Z,101123.81
2022-11-29T00:56:20.588Z,101119.03
2022-11-29T00:59:29.594Z,101118.84
2022-11-29T01:02:38.257Z,101117.53
2022-11-29T01:05:46.615Z,101103.53
2022-11-29T01:08:55.317Z,101113.88
2022-11-29T01:12:03.595Z,101117.84
2022-11-29T01:15:13.906Z,101119.38
2022-11-29T01:18:22.590Z,101115.75
2022-11-29T01:21:44.574Z,101116.72
2022-11-29T01:24:52.554Z,101114.16
2022-11-29T01:28:01.234Z,101114.06
2022-11-29T01:31:19.587Z,101109.34
2022-11-29T01:34:34.682Z,101112.25
2022-11-29T01:37:49.598Z,101107.97
2022-11-29T01:41:02.892Z,101109.88
2022-11-29T01:44:51.613Z,101101.91
2022-11-29T01:48:07.584Z,101109.78
2022-11-29T01:51:09.437Z,101110.72
2022-11-29T01:54:26.579Z,101110.12
2022-11-29T01:57:35.587Z,101106.28
2022-11-29T02:00:51.571Z,101110.50
2022-11-29T02:03:53.886Z,101109.47
2022-11-29T02:07:09.709Z,101116.25
2022-11-29T02:10:18.579Z,101110.94
2022-11-29T02:14:07.193Z,101105.88
2022-11-29T02:17:44.641Z,101111.03
2022-11-29T02:21:22.611Z,101108.19
2022-11-29T02:24:52.637Z,101112.53
2022-11-29T02:28:39.640Z,101115.28
2022-11-29T02:32:14.611Z,101125.47
2022-11-29T02:35:49.632Z,101129.75
2022-11-29T02:39:18.722Z,101125.47
2022-11-29T02:42:56.180Z,101134.22
2022-11-29T02:46:20.632Z,101129.50
2022-11-29T02:49:55.590Z,101132.16
2022-11-29T02:53:17.061Z,101130.59
2022-11-29T02:56:50.610Z,101130.47
2022-11-29T03:00:09.630Z,101126.66
2022-11-29T03:03:27.349Z,101130.59
2022-11-29T03:06:57.609Z,101122.81
2022-11-29T03:10:28.361Z,101127.88
2022-11-29T03:13:56.631Z,101133.16
2022-11-29T03:17:23.626Z,101128.66
2022-11-29T03:20:44.615Z,101122.31
2022-11-29T03:23:57.263Z,101130.59
2022-11-29T03:27:18.662Z,101132.16
2022-11-29T03:30:20.870Z,101124.87
2022-11-29T03:34:03.667Z,101130.28
2022-11-29T03:37:22.613Z,101132.84
2022-11-29T03:40:42.258Z,101137.28
2022-11-29T03:44:09.630Z,101138.81
2022-11-29T03:47:32.681Z,101133.06
2022-11-29T03:50:46.629Z,101139.84
2022-11-29T03:54:03.552Z,101139.47
2022-11-29T03:57:24.641Z,101138.63
2022-11-29T04:00:40.642Z,101145.81
2022-11-29T04:04:17.595Z,101143.94
2022-11-29T04:07:39.435Z,101146.69
2022-11-29T04:11:13.779Z,101149.75
2022-11-29T04:14:30.804Z,101155.25
2022-11-29T04:18:15.605Z,101156.88
2022-11-29T04:22:00.686Z,101156.59
2022-11-29T04:25:32.654Z,101155.69
2022-11-29T04:29:17.703Z,101162.50
2022-11-29T04:32:43.427Z,101156.53
2022-11-29T04:36:18.626Z,101162.09
2022-11-29T04:39:48.705Z,101161.56
2022-11-29T04:43:22.678Z,101155.72
2022-11-29T04:47:00.639Z,101154.34
2022-11-29T04:50:32.322Z,101159.50
2022-11-29T04:54:04.702Z,101166.13
2022-11-29T04:57:17.797Z,101172.28
2022-11-29T05:00:32.651Z,101182.66
2022-11-29T05:03:55.446Z,101179.25
2022-11-29T05:07:26.943Z,101189.16
2022-11-29T05:10:58.713Z,101185.09
2022-11-29T05:14:23.438Z,101190.06
2022-11-29T05:17:42.657Z,101195.19
2022-11-29T05:21:18.062Z,101180.62
2022-11-29T05:24:53.711Z,101192.25
2022-11-29T05:28:15.438Z,101197.22
2022-11-29T05:35:08.714Z,101198.00
2022-11-29T05:38:50.733Z,101200.75
2022-11-29T05:42:18.684Z,101195.44
2022-11-29T05:45:34.977Z,101192.44
2022-11-29T05:49:07.711Z,101210.00
2022-11-29T05:52:38.729Z,101201.00
2022-11-29T05:56:03.717Z,101204.06
2022-11-29T05:59:20.752Z,101201.00
2022-11-29T06:02:58.825Z,101197.75
2022-11-29T06:06:06.974Z,101204.50
2022-11-29T06:09:35.774Z,101219.00
2022-11-29T06:12:59.722Z,101219.69
2022-11-29T06:16:29.825Z,101220.09
2022-11-29T06:20:01.886Z,101224.47
2022-11-29T06:23:30.717Z,101224.81
2022-11-29T06:27:04.851Z,101225.56
2022-11-29T06:30:19.746Z,101229.78
2022-11-29T06:33:50.673Z,101229.09
2022-11-29T06:37:07.163Z,101228.16
2022-11-29T06:40:23.822Z,101232.53
2022-11-29T06:43:26.233Z,101229.50
2022-11-29T06:46:53.763Z,101231.50
2022-11-29T06:50:38.834Z,101230.47
2022-11-29T06:53:51.681Z,101232.78
2022-11-29T06:57:23.722Z,101219.69
2022-11-29T07:00:34.779Z,101238.94
2022-11-29T07:04:23.130Z,101244.50
2022-11-29T07:07:40.802Z,101235.94
2022-11-29T07:10:43.820Z,101236.63
2022-11-29T07:14:00.744Z,101227.81
2022-11-29T07:17:46.720Z,101244.69
2022-11-29T07:21:27.722Z,101240.16
2022-11-29T07:25:04.906Z,101245.91
2022-11-29T07:28:32.868Z,101244.69
2022-11-29T07:32:08.831Z,101245.28
2022-11-29T07:35:39.743Z,101242.25
2022-11-29T07:39:03.880Z,101245.09
2022-11-29T07:42:33.051Z,101241.41
2022-11-29T07:45:35.702Z,101244.34
2022-11-29T07:48:58.502Z,101247.84
2022-11-29T07:52:16.758Z,101264.81
2022-11-29T07:55:21.327Z,101253.78
2022-11-29T07:58:35.808Z,101254.03
2022-11-29T08:01:37.666Z,101251.38
2022-11-29T08:04:52.718Z,101256.84
2022-11-29T08:07:54.503Z,101258.13
2022-11-29T08:11:16.699Z,101260.63
2022-11-29T08:14:18.539Z,101244.00
2022-11-29T08:17:34.779Z,101246.72
2022-11-29T08:20:44.326Z,101252.03
2022-11-29T08:23:59.703Z,101244.19
2022-11-29T08:27:07.840Z,101250.16
2022-11-29T08:30:22.727Z,101249.66
2022-11-29T08:33:30.766Z,101253.94
2022-11-29T08:36:39.290Z,101254.97
2022-11-29T08:39:47.790Z,101253.09
2022-11-29T08:43:04.801Z,101253.09
2022-11-29T08:46:06.845Z,101255.47
2022-11-29T08:49:21.825Z,101255.38
2022-11-29T08:52:33.874Z,101259.75
2022-11-29T08:55:44.798Z,101253.41
2022-11-29T08:58:53.377Z,101247.41
2022-11-29T09:02:01.848Z,101255.28
2022-11-29T09:05:13.118Z,101252.03
2022-11-29T09:08:21.794Z,101260.00
2022-11-29T09:11:39.734Z,101256.38
2022-11-29T09:14:41.589Z,101255.88
2022-11-29T09:17:56.854Z,101251.09
2022-11-29T09:21:08.050Z,101254.78
2022-11-29T09:24:22.718Z,101251.50
2022-11-29T09:27:37.842Z,101243.34
2022-11-29T09:30:46.703Z,101245.25
2022-11-29T09:33:58.276Z,101248.13
2022-11-29T09:37:12.835Z,101247.75
2022-11-29T09:40:27.573Z,101244.06
2022-11-29T09:44:05.738Z,101238.28
2022-11-29T09:47:37.746Z,101250.31
2022-11-29T09:50:48.348Z,101242.84
2022-11-29T09:54:23.778Z,101247.88
2022-11-29T09:57:39.810Z,101236.59
2022-11-29T10:00:49.628Z,101232.28
2022-11-29T10:04:09.758Z,101221.06
2022-11-29T10:07:25.832Z,101232.09
2022-11-29T10:10:50.842Z,101225.25
2022-11-29T10:14:05.781Z,101225.94
2022-11-29T10:17:33.482Z,101207.56
2022-11-29T10:20:52.130Z,101213.06
2022-11-29T10:24:17.844Z,101208.88
2022-11-29T10:27:28.793Z,101205.38
2022-11-29T10:30:39.007Z,101205.66
2022-11-29T10:33:56.930Z,101207.84
2022-11-29T10:37:06.837Z,101202.34
2022-11-29T10:40:23.477Z,101214.97
2022-11-29T10:43:38.826Z,101190.84
2022-11-29T10:46:47.818Z,101199.03
2022-11-29T10:50:03.985Z,101195.09
2022-11-29T10:53:11.483Z,101190.47
2022-11-29T10:56:30.844Z,101187.13
2022-11-29T10:59:38.867Z,101189.69
2022-11-29T11:02:47.819Z,101192.28
2022-11-29T11:06:07.858Z,101181.44
2022-11-29T11:09:34.845Z,101180.56
2022-11-29T11:13:01.751Z,101181.34
2022-11-29T11:16:22.876Z,101184.75
2022-11-29T11:19:38.271Z,101192.53
2022-11-29T11:23:06.874Z,101153.97
2022-11-29T11:26:12.923Z,101179.25
2022-11-29T11:29:32.906Z,101177.56
2022-11-29T11:32:58.451Z,101182.84
2022-11-29T11:36:21.014Z,101186.66
2022-11-29T11:39:30.941Z,101190.84
2022-11-29T11:42:46.878Z,101189.00
2022-11-29T11:45:54.301Z,101186.34
2022-11-29T11:49:08.868Z,101187.13
2022-11-29T11:52:21.250Z,101186.34
2022-11-29T11:55:41.888Z,101179.59
2022-11-29T11:59:03.988Z,101183.03
2022-11-29T12:02:40.686Z,101190.44
2022-11-29T12:06:00.817Z,101182.75
2022-11-29T12:09:45.864Z,101171.53
2022-11-29T12:13:01.926Z,101183.88
2022-11-29T12:16:19.867Z,101182.03
2022-11-29T12:19:43.114Z,101174.84
2022-11-29T12:23:15.978Z,101172.75
2022-11-29T12:27:00.008Z,101176.41
2022-11-29T12:29:59.149Z,101172.63
2022-11-29T12:33:33.843Z,101169.31
2022-11-29T12:37:03.831Z,101160.59
2022-11-29T12:40:23.780Z,101162.16
2022-11-29T12:43:56.108Z,101161.94
2022-11-29T12:47:38.405Z,101153.28
2022-11-29T12:51:10.276Z,101162.63
2022-11-29T12:54:51.847Z,101163.03
2022-11-29T12:58:20.867Z,101173.19
2022-11-29T13:01:42.599Z,101161.34
2022-11-29T13:05:19.895Z,101151.38
2022-11-29T13:08:54.931Z,101151.50
2022-11-29T13:12:05.603Z,101152.13
2022-11-29T13:15:28.875Z,101158.13
2022-11-29T13:18:53.490Z,101155.94
2022-11-29T13:22:29.945Z,101155.87
2022-11-29T13:25:45.954Z,101158.03
2022-11-29T13:29:04.946Z,101165.22
2022-11-29T13:32:38.959Z,101152.72
2022-11-29T13:36:04.916Z,101163.47
2022-11-29T13:39:50.217Z,101157.94
2022-11-29T13:43:31.989Z,101157.78
2022-11-29T13:47:08.911Z,101156.06
2022-11-29T13:50:37.510Z,101129.22
2022-11-29T13:53:57.273Z,101155.47
2022-11-29T13:57:06.510Z,101157.28
2022-11-29T14:00:44.511Z,101158.63
2022-11-29T14:04:13.898Z,101168.87
2022-11-29T14:07:31.956Z,101168.06
2022-11-29T14:10:56.863Z,101181.12
2022-11-29T14:14:46.435Z,101171.84
2022-11-29T14:17:58.872Z,101171.94
2022-11-29T14:21:18.817Z,101172.19
2022-11-29T14:24:48.126Z,101163.78
2022-11-29T14:28:02.273Z,101167.75
2022-11-29T14:31:20.214Z,101159.88
2022-11-29T14:34:34.087Z,101159.06
2022-11-29T14:38:21.290Z,101155.34
2022-11-29T14:42:15.887Z,101166.84
2022-11-29T14:45:24.751Z,101163.97
2022-11-29T14:48:40.938Z,101160.47
2022-11-29T14:52:22.933Z,101153.81
2022-11-29T14:55:35.757Z,101161.69
2022-11-29T14:58:43.939Z,101154.28
2022-11-29T15:01:53.794Z,101163.91
2022-11-29T15:05:03.994Z,101156.53
2022-11-29T15:08:48.940Z,101157.12
2022-11-29T15:11:57.930Z,101160.03
2022-11-29T15:15:29.954Z,101158.53
2022-11-29T15:18:51.742Z,101151.13
2022-11-29T15:22:28.919Z,101156.84
2022-11-29T15:25:53.920Z,101157.69
2022-11-29T15:29:21.906Z,101158.94
2022-11-29T15:32:29.180Z,101154.34
2022-11-29T15:35:44.970Z,101158.28
2022-11-29T15:38:57.131Z,101160.13
2022-11-29T15:42:21.954Z,101153.47
2022-11-29T15:45:34.476Z,101145.13
2022-11-29T15:48:49.031Z,101155.50
2022-11-29T15:52:03.888Z,101149.25
2022-11-29T15:55:20.997Z,101153.66
2022-11-29T15:58:26.287Z,101158.69
2022-11-29T16:01:41.926Z,101152.84
2022-11-29T16:04:47.068Z,101153.81
2022-11-29T16:08:11.038Z,101169.56
2022-11-29T16:11:29.959Z,101159.50
2022-11-29T16:14:49.783Z,101177.72
2022-11-29T16:17:58.979Z,101178.34
2022-11-29T16:21:32.900Z,101177.16
2022-11-29T16:25:03.042Z,101181.75
2022-11-29T16:28:11.925Z,101172.56
2022-11-29T16:31:23.702Z,101173.41
2022-11-29T16:34:35.954Z,101178.59
2022-11-29T16:37:46.487Z,101181.47
2022-11-29T16:41:10.295Z,101181.31
2022-11-29T16:45:05.052Z,101177.78
2022-11-29T16:48:34.979Z,101189.41
2022-11-29T16:51:46.145Z,101205.25
2022-11-29T16:54:56.021Z,101196.25
2022-11-29T16:58:04.618Z,101197.22
2022-11-29T17:01:29.981Z,101208.28
2022-11-29T17:04:38.740Z,101213.34
2022-11-29T17:07:48.079Z,101215.06
2022-11-29T17:11:06.201Z,101213.25
2022-11-29T17:14:08.474Z,101214.31
2022-11-29T17:17:25.079Z,101216.59
2022-11-29T17:20:27.205Z,101226.19
2022-11-29T17:23:48.970Z,101225.22
2022-11-29T17:26:51.081Z,101229.22
2022-11-29T17:30:06.163Z,101220.31
2022-11-29T17:33:08.038Z,101214.69
2022-11-29T17:36:25.970Z,101215.34
2022-11-29T17:39:27.766Z,101223.31
2022-11-29T17:42:43.074Z,101225.97
2022-11-29T17:45:58.070Z,101227.63
2022-11-29T17:49:07.998Z,101223.31
2022-11-29T17:52:16.634Z,101225.44
2022-11-29T17:55:31.111Z,101229.34
2022-11-29T17:58:39.981Z,101226.19
2022-11-29T18:01:48.874Z,101226.37
2022-11-29T18:04:57.098Z,101225.22
2022-11-29T18:08:12.141Z,101213.81
2022-11-29T18:11:17.233Z,101219.44
2022-11-29T18:14:32.083Z,101215.81
2022-11-29T18:17:33.899Z,101213.94
2022-11-29T18:20:49.003Z,101211.06
2022-11-29T18:23:59.468Z,101216.66
2022-11-29T18:27:14.069Z,101217.31
2022-11-29T18:30:16.213Z,101219.81
2022-11-29T18:33:31.039Z,101213.78
2022-11-29T18:36:43.982Z,101222.06
2022-11-29T18:39:59.022Z,101230.03
2022-11-29T18:43:15.015Z,101233.50
2022-11-29T18:46:26.122Z,101237.97
2022-11-29T18:49:34.612Z,101229.19
2022-11-29T18:52:56.000Z,101228.44
2022-11-29T18:56:00.834Z,101240.53
2022-11-29T18:59:18.983Z,101238.72
2022-11-29T19:02:29.098Z,101239.88
2022-11-29T19:05:39.014Z,101233.28
2022-11-29T19:08:48.158Z,101235.78
2022-11-29T19:11:56.713Z,101240.25
2022-11-29T19:15:05.994Z,101236.84
2022-11-29T19:18:17.771Z,101231.09
2022-11-29T19:21:35.090Z,101233.87
2022-11-29T19:24:49.991Z,101239.00
2022-11-29T19:27:51.905Z,101236.16
2022-11-29T19:31:07.099Z,101237.66
2022-11-29T19:34:09.129Z,101241.38
2022-11-29T19:37:24.002Z,101237.75
2022-11-29T19:40:33.031Z,101237.97
2022-11-29T19:43:49.203Z,101243.19
2022-11-29T19:46:51.099Z,101234.63
2022-11-29T19:50:06.047Z,101240.31
2022-11-29T19:53:07.985Z,101243.69
2022-11-29T19:56:24.034Z,101231.59
2022-11-29T19:59:39.048Z,101243.09
2022-11-29T20:02:55.046Z,101233.94
2022-11-29T20:05:56.939Z,101224.81
2022-11-29T20:09:13.063Z,101223.69
2022-11-29T20:12:15.529Z,101222.91
2022-11-29T20:15:30.037Z,101228.25
2022-11-29T20:18:33.190Z,101227.22
2022-11-29T20:21:52.151Z,101231.78
2022-11-29T20:25:07.006Z,101219.13
2022-11-29T20:28:15.630Z,101222.72
2022-11-29T20:31:26.150Z,101218.81
2022-11-29T20:34:34.923Z,101222.84
2022-11-29T20:38:12.033Z,101218.47
2022-11-29T20:41:45.002Z,101219.00
2022-11-29T20:44:54.645Z,101215.38
2022-11-29T20:48:17.019Z,101228.59
2022-11-29T20:51:33.289Z,101220.50
2022-11-29T20:54:48.085Z,101225.56
2022-11-29T20:57:49.979Z,101218.06
2022-11-29T21:01:06.032Z,101210.91
2022-11-29T21:04:15.865Z,101216.06
2022-11-29T21:07:34.027Z,101214.31
2022-11-29T21:10:36.641Z,101216.72
2022-11-29T21:13:51.051Z,101212.25
2022-11-29T21:16:53.239Z,101219.63
2022-11-29T21:20:09.065Z,101218.69
2022-11-29T21:23:49.131Z,101231.25
2022-11-29T21:27:04.081Z,101219.66
2022-11-29T21:30:26.081Z,101219.06
2022-11-29T21:33:34.735Z,101221.34
2022-11-29T21:36:45.038Z,101226.78
2022-11-29T21:40:01.051Z,101224.22
2022-11-29T21:43:09.699Z,101221.72
2022-11-29T21:46:19.108Z,101234.34
2022-11-29T21:49:36.123Z,101236.00
2022-11-29T21:52:44.753Z,101232.16
2022-11-29T21:56:04.092Z,101223.69
2022-11-29T21:59:05.941Z,101227.03
2022-11-29T22:02:21.165Z,101228.47
2022-11-29T22:05:30.062Z,101230.25
2022-11-29T22:08:48.047Z,101227.88
2022-11-29T22:11:56.742Z,101222.78
2022-11-29T22:15:12.048Z,101223.63
2022-11-29T22:18:13.974Z,101222.19
2022-11-29T22:21:30.077Z,101222.66
2022-11-29T22:24:46.482Z,101218.53
2022-11-29T22:27:54.673Z,101223.66
2022-11-29T22:31:16.978Z,101220.16
2022-11-29T22:34:27.126Z,101218.34
2022-11-29T22:37:36.143Z,101216.53
2022-11-29T22:40:44.682Z,101224.50
2022-11-29T22:43:53.085Z,101210.97
2022-11-29T22:47:01.751Z,101215.28
2022-11-29T22:50:17.129Z,101206.50
2022-11-29T22:53:25.815Z,101215.78
2022-11-29T22:56:37.122Z,101205.53
2022-11-29T22:59:45.776Z,101205.34
2022-11-29T23:02:54.065Z,101200.31
2022-11-29T23:06:07.659Z,101207.34
2022-11-29T23:09:26.054Z,101198.41
2022-11-29T23:12:28.253Z,101198.63
2022-11-29T23:15:43.070Z,101193.72
2022-11-29T23:18:59.054Z,101179.94
2022-11-29T23:22:14.112Z,101201.84
2022-11-29T23:25:22.760Z,101190.59
2022-11-29T23:28:31.118Z,101193.63
2022-11-29T23:31:40.381Z,101191.28
2022-11-29T23:34:49.239Z,101186.81
2022-11-29T23:37:57.575Z,101182.63
2022-11-29T23:41:06.114Z,101192.13
2022-11-29T23:44:21.115Z,101195.53
2022-11-29T23:47:22.983Z,101196.19
2022-11-29T23:50:38.267Z,101192.44
2022-11-29T23:53:40.709Z,101196.19
2022-11-29T23:56:55.167Z,101195.34
